sensor_id;sensor_type;location;lat;lon;timestamp;pressure;altitude;pressure_sealevel;temperature;humidity
51239;BME280;38154;47.548;18.828;2023-02-04T00:00:48;98485.25;;;2.81;100.00
51239;BME280;38154;47.548;18.828;2023-02-04T00:03:14;98485.19;;;2.79;100.00
51239;BME280;38154;47.548;18.828;2023-02-04T00:05:41;98479.34;;;2.85;100.00
51239;BME280;38154;47.548;18.828;2023-02-04T00:08:07;98483.63;;;2.84;100.00
51239;BME280;38154;47.548;18.828;2023-02-04T00:10:33;98481.84;;;2.82;100.00
51239;BME280;38154;47.548;18.828;2023-02-04T00:13:00;98472.31;;;2.79;100.00
51239;BME280;38154;47.548;18.828;2023-02-04T00:15:26;98470.44;;;2.72;100.00
51239;BME280;38154;47.548;18.828;2023-02-04T00:17:52;98471.91;;;2.64;100.00
51239;BME280;38154;47.548;18.828;2023-02-04T00:20:18;98471.97;;;2.65;100.00
51239;BME280;38154;47.548;18.828;2023-02-04T00:22:46;98469.34;;;2.64;100.00
51239;BME280;38154;47.548;18.828;2023-02-04T00:25:13;98459.94;;;2.66;100.00
51239;BME280;38154;47.548;18.828;2023-02-04T00:27:38;98463.19;;;2.58;100.00
51239;BME280;38154;47.548;18.828;2023-02-04T00:30:05;98467.50;;;2.59;100.00
51239;BME280;38154;47.548;18.828;2023-02-04T00:32:31;98466.91;;;2.70;100.00
51239;BME280;38154;47.548;18.828;2023-02-04T00:34:57;98465.41;;;2.78;100.00
51239;BME280;38154;47.548;18.828;2023-02-04T00:37:23;98470.56;;;2.78;100.00
51239;BME280;38154;47.548;18.828;2023-02-04T00:39:49;98468.22;;;2.86;100.00
51239;BME280;38154;47.548;18.828;2023-02-04T00:42:15;98464.69;;;2.82;100.00
51239;BME280;38154;47.548;18.828;2023-02-04T00:44:41;98459.53;;;2.82;100.00
51239;BME280;38154;47.548;18.828;2023-02-04T00:47:07;98469.00;;;2.83;100.00
51239;BME280;38154;47.548;18.828;2023-02-04T00:49:33;98465.78;;;2.90;100.00
51239;BME280;38154;47.548;18.828;2023-02-04T00:51:59;98462.44;;;2.94;100.00
51239;BME280;38154;47.548;18.828;2023-02-04T00:54:26;98468.31;;;2.89;100.00
51239;BME280;38154;47.548;18.828;2023-02-04T00:56:52;98465.62;;;2.86;100.00
51239;BME280;38154;47.548;18.828;2023-02-04T00:59:18;98467.13;;;2.77;100.00
51239;BME280;38154;47.548;18.828;2023-02-04T01:01:43;98460.53;;;2.87;100.00
51239;BME280;38154;47.548;18.828;2023-02-04T01:04:10;98456.09;;;2.82;100.00
51239;BME280;38154;47.548;18.828;2023-02-04T01:06:35;98457.25;;;2.93;100.00
51239;BME280;38154;47.548;18.828;2023-02-04T01:09:02;98456.19;;;2.86;100.00
51239;BME280;38154;47.548;18.828;2023-02-04T01:11:29;98454.56;;;2.90;100.00
51239;BME280;38154;47.548;18.828;2023-02-04T01:13:55;98459.94;;;2.97;100.00
51239;BME280;38154;47.548;18.828;2023-02-04T01:16:21;98447.19;;;3.02;100.00
51239;BME280;38154;47.548;18.828;2023-02-04T01:18:47;98457.41;;;2.99;100.00
51239;BME280;38154;47.548;18.828;2023-02-04T01:21:13;98454.09;;;3.05;100.00
51239;BME280;38154;47.548;18.828;2023-02-04T01:23:39;98454.03;;;3.02;100.00
51239;BME280;38154;47.548;18.828;2023-02-04T01:26:05;98444.66;;;3.04;100.00
51239;BME280;38154;47.548;18.828;2023-02-04T01:28:31;98435.09;;;3.00;100.00
51239;BME280;38154;47.548;18.828;2023-02-04T01:30:57;98434.16;;;2.96;100.00
51239;BME280;38154;47.548;18.828;2023-02-04T01:33:23;98434.06;;;2.93;100.00
51239;BME280;38154;47.548;18.828;2023-02-04T01:35:49;98434.09;;;2.94;100.00
51239;BME280;38154;47.548;18.828;2023-02-04T01:38:15;98424.66;;;2.93;100.00
51239;BME280;38154;47.548;18.828;2023-02-04T01:40:41;98416.13;;;2.96;100.00
51239;BME280;38154;47.548;18.828;2023-02-04T01:43:07;98413.50;;;2.94;100.00
51239;BME280;38154;47.548;18.828;2023-02-04T01:45:34;98417.16;;;3.03;100.00
51239;BME280;38154;47.548;18.828;2023-02-04T01:48:01;98417.09;;;3.01;100.00
51239;BME280;38154;47.548;18.828;2023-02-04T01:50:28;98414.69;;;3.07;100.00
51239;BME280;38154;47.548;18.828;2023-02-04T01:52:54;98404.56;;;3.15;100.00
51239;BME280;38154;47.548;18.828;2023-02-04T01:55:24;98408.03;;;3.15;100.00
51239;BME280;38154;47.548;18.828;2023-02-04T01:57:51;98412.44;;;3.21;100.00
51239;BME280;38154;47.548;18.828;2023-02-04T02:00:32;98400.31;;;3.15;100.00
51239;BME280;38154;47.548;18.828;2023-02-04T02:02:59;98407.25;;;3.20;100.00
51239;BME280;38154;47.548;18.828;2023-02-04T02:05:32;98410.75;;;3.22;100.00
51239;BME280;38154;47.548;18.828;2023-02-04T02:08:04;98407.34;;;3.23;100.00
51239;BME280;38154;47.548;18.828;2023-02-04T02:10:30;98404.06;;;3.30;100.00
51239;BME280;38154;47.548;18.828;2023-02-04T02:12:57;98405.72;;;3.26;100.00
51239;BME280;38154;47.548;18.828;2023-02-04T02:15:24;98406.56;;;3.25;100.00
51239;BME280;38154;47.548;18.828;2023-02-04T02:17:51;98415.87;;;3.22;100.00
51239;BME280;38154;47.548;18.828;2023-02-04T02:20:20;98410.94;;;3.29;100.00
51239;BME280;38154;47.548;18.828;2023-02-04T02:23:10;98401.31;;;3.22;100.00
51239;BME280;38154;47.548;18.828;2023-02-04T02:25:39;98399.56;;;3.21;100.00
51239;BME280;38154;47.548;18.828;2023-02-04T02:28:14;98402.47;;;3.33;100.00
51239;BME280;38154;47.548;18.828;2023-02-04T02:30:40;98396.47;;;3.34;100.00
51239;BME280;38154;47.548;18.828;2023-02-04T02:33:14;98399.87;;;3.33;100.00
51239;BME280;38154;47.548;18.828;2023-02-04T02:35:42;98395.53;;;3.31;100.00
51239;BME280;38154;47.548;18.828;2023-02-04T02:38:13;98400.59;;;3.28;100.00
51239;BME280;38154;47.548;18.828;2023-02-04T02:40:40;98404.81;;;3.24;100.00
51239;BME280;38154;47.548;18.828;2023-02-04T02:43:09;98394.56;;;3.27;100.00
51239;BME280;38154;47.548;18.828;2023-02-04T02:45:39;98399.66;;;3.24;100.00
51239;BME280;38154;47.548;18.828;2023-02-04T02:48:05;98398.13;;;3.32;100.00
51239;BME280;38154;47.548;18.828;2023-02-04T02:50:31;98392.94;;;3.31;100.00
51239;BME280;38154;47.548;18.828;2023-02-04T02:52:58;98404.06;;;3.30;100.00
51239;BME280;38154;47.548;18.828;2023-02-04T02:55:25;98393.75;;;3.30;100.00
51239;BME280;38154;47.548;18.828;2023-02-04T02:57:53;98404.03;;;3.27;100.00
51239;BME280;38154;47.548;18.828;2023-02-04T03:00:25;98400.50;;;3.25;100.00
51239;BME280;38154;47.548;18.828;2023-02-04T03:03:08;98403.00;;;3.22;100.00
51239;BME280;38154;47.548;18.828;2023-02-04T03:05:40;98407.31;;;3.21;100.00
51239;BME280;38154;47.548;18.828;2023-02-04T03:08:07;98402.09;;;3.20;100.00
51239;BME280;38154;47.548;18.828;2023-02-04T03:10:35;98398.81;;;3.25;100.00
51239;BME280;38154;47.548;18.828;2023-02-04T03:13:02;98400.63;;;3.29;100.00
51239;BME280;38154;47.548;18.828;2023-02-04T03:15:29;98397.97;;;3.26;100.00
51239;BME280;38154;47.548;18.828;2023-02-04T03:17:55;98401.53;;;3.31;100.00
51239;BME280;38154;47.548;18.828;2023-02-04T03:20:27;98399.03;;;3.34;100.00
51239;BME280;38154;47.548;18.828;2023-02-04T03:22:54;98396.53;;;3.38;100.00
51239;BME280;38154;47.548;18.828;2023-02-04T03:25:20;98394.84;;;3.40;100.00
51239;BME280;38154;47.548;18.828;2023-02-04T03:27:50;98394.03;;;3.41;100.00
51239;BME280;38154;47.548;18.828;2023-02-04T03:30:21;98390.59;;;3.42;100.00
51239;BME280;38154;47.548;18.828;2023-02-04T03:32:47;98369.81;;;3.34;100.00
51239;BME280;38154;47.548;18.828;2023-02-04T03:35:14;98379.31;;;3.37;100.00
51239;BME280;38154;47.548;18.828;2023-02-04T03:37:40;98369.72;;;3.29;100.00
51239;BME280;38154;47.548;18.828;2023-02-04T03:40:06;98376.63;;;3.30;100.00
51239;BME280;38154;47.548;18.828;2023-02-04T03:42:32;98366.94;;;3.22;100.00
51239;BME280;38154;47.548;18.828;2023-02-04T03:44:58;98365.28;;;3.24;100.00
51239;BME280;38154;47.548;18.828;2023-02-04T03:47:24;98361.16;;;3.30;100.00
51239;BME280;38154;47.548;18.828;2023-02-04T03:49:49;98363.06;;;3.39;100.00
51239;BME280;38154;47.548;18.828;2023-02-04T03:52:15;98357.88;;;3.38;100.00
51239;BME280;38154;47.548;18.828;2023-02-04T03:54:41;98338.75;;;3.28;100.00
51239;BME280;38154;47.548;18.828;2023-02-04T03:57:07;98346.59;;;3.32;100.00
51239;BME280;38154;47.548;18.828;2023-02-04T03:59:33;98344.12;;;3.37;100.00
51239;BME280;38154;47.548;18.828;2023-02-04T04:01:59;98345.94;;;3.41;100.00
51239;BME280;38154;47.548;18.828;2023-02-04T04:04:25;98352.84;;;3.42;100.00
51239;BME280;38154;47.548;18.828;2023-02-04T04:06:51;98341.72;;;3.45;100.00
51239;BME280;38154;47.548;18.828;2023-02-04T04:09:16;98336.53;;;3.43;100.00
51239;BME280;38154;47.548;18.828;2023-02-04T04:11:42;98329.75;;;3.48;100.00
51239;BME280;38154;47.548;18.828;2023-02-04T04:14:08;98332.41;;;3.51;100.00
51239;BME280;38154;47.548;18.828;2023-02-04T04:16:34;98336.69;;;3.51;100.00
51239;BME280;38154;47.548;18.828;2023-02-04T04:19:00;98330.47;;;3.41;100.00
51239;BME280;38154;47.548;18.828;2023-02-04T04:21:26;98310.03;;;3.49;100.00
51239;BME280;38154;47.548;18.828;2023-02-04T04:23:52;98316.09;;;3.51;100.00
51239;BME280;38154;47.548;18.828;2023-02-04T04:26:18;98312.72;;;3.55;100.00
51239;BME280;38154;47.548;18.828;2023-02-04T04:28:44;98323.00;;;3.53;100.00
51239;BME280;38154;47.548;18.828;2023-02-04T04:31:09;98320.59;;;3.61;100.00
51239;BME280;38154;47.548;18.828;2023-02-04T04:33:35;98312.94;;;3.64;100.00
51239;BME280;38154;47.548;18.828;2023-02-04T04:36:01;98313.00;;;3.67;100.00
51239;BME280;38154;47.548;18.828;2023-02-04T04:38:27;98312.09;;;3.65;100.00
51239;BME280;38154;47.548;18.828;2023-02-04T04:40:53;98317.13;;;3.59;100.00
51239;BME280;38154;47.548;18.828;2023-02-04T04:43:19;98305.84;;;3.54;100.00
51239;BME280;38154;47.548;18.828;2023-02-04T04:45:45;98316.13;;;3.52;100.00
51239;BME280;38154;47.548;18.828;2023-02-04T04:48:11;98313.62;;;3.56;100.00
51239;BME280;38154;47.548;18.828;2023-02-04T04:50:37;98318.78;;;3.56;100.00
51239;BME280;38154;47.548;18.828;2023-02-04T04:53:03;98327.38;;;3.56;100.00
51239;BME280;38154;47.548;18.828;2023-02-04T04:55:29;98323.03;;;3.55;100.00
51239;BME280;38154;47.548;18.828;2023-02-04T04:57:55;98318.81;;;3.57;100.00
51239;BME280;38154;47.548;18.828;2023-02-04T05:00:21;98318.03;;;3.61;100.00
51239;BME280;38154;47.548;18.828;2023-02-04T05:02:47;98311.97;;;3.59;100.00
51239;BME280;38154;47.548;18.828;2023-02-04T05:05:13;98319.88;;;3.68;100.00
51239;BME280;38154;47.548;18.828;2023-02-04T05:07:39;98311.28;;;3.68;100.00
51239;BME280;38154;47.548;18.828;2023-02-04T05:10:05;98307.84;;;3.67;100.00
51239;BME280;38154;47.548;18.828;2023-02-04T05:12:31;98316.44;;;3.68;100.00
51239;BME280;38154;47.548;18.828;2023-02-04T05:14:57;98320.84;;;3.72;100.00
51239;BME280;38154;47.548;18.828;2023-02-04T05:17:23;98312.22;;;3.71;100.00
51239;BME280;38154;47.548;18.828;2023-02-04T05:19:49;98311.16;;;3.62;100.00
51239;BME280;38154;47.548;18.828;2023-02-04T05:22:15;98306.09;;;3.66;100.00
51239;BME280;38154;47.548;18.828;2023-02-04T05:24:41;98304.44;;;3.70;100.00
51239;BME280;38154;47.548;18.828;2023-02-04T05:27:07;98315.59;;;3.67;100.00
51239;BME280;38154;47.548;18.828;2023-02-04T05:29:33;98288.09;;;3.68;100.00
51239;BME280;38154;47.548;18.828;2023-02-04T05:31:58;98309.56;;;3.68;100.00
51239;BME280;38154;47.548;18.828;2023-02-04T05:34:24;98305.94;;;3.60;100.00
51239;BME280;38154;47.548;18.828;2023-02-04T05:36:50;98300.63;;;3.51;100.00
51239;BME280;38154;47.548;18.828;2023-02-04T05:39:16;98313.91;;;3.31;100.00
51239;BME280;38154;47.548;18.828;2023-02-04T05:41:42;98293.91;;;3.20;100.00
51239;BME280;38154;47.548;18.828;2023-02-04T05:44:08;98299.66;;;3.08;100.00
51239;BME280;38154;47.548;18.828;2023-02-04T05:46:34;98292.69;;;3.04;100.00
51239;BME280;38154;47.548;18.828;2023-02-04T05:49:01;98293.41;;;2.98;100.00
51239;BME280;38154;47.548;18.828;2023-02-04T05:51:26;98308.69;;;2.90;100.00
51239;BME280;38154;47.548;18.828;2023-02-04T05:53:52;98314.50;;;2.83;100.00
51239;BME280;38154;47.548;18.828;2023-02-04T05:56:18;98313.62;;;2.83;100.00
51239;BME280;38154;47.548;18.828;2023-02-04T05:58:44;98327.91;;;2.68;100.00
51239;BME280;38154;47.548;18.828;2023-02-04T06:01:10;98332.91;;;2.64;100.00
51239;BME280;38154;47.548;18.828;2023-02-04T06:03:36;98346.47;;;2.58;100.00
51239;BME280;38154;47.548;18.828;2023-02-04T06:06:02;98348.09;;;2.54;100.00
51239;BME280;38154;47.548;18.828;2023-02-04T06:08:27;98372.25;;;2.59;100.00
51239;BME280;38154;47.548;18.828;2023-02-04T06:10:53;98401.56;;;2.63;100.00
51239;BME280;38154;47.548;18.828;2023-02-04T06:13:19;98384.22;;;2.57;100.00
51239;BME280;38154;47.548;18.828;2023-02-04T06:15:45;98397.19;;;2.60;100.00
51239;BME280;38154;47.548;18.828;2023-02-04T06:18:11;98410.00;;;2.59;100.00
51239;BME280;38154;47.548;18.828;2023-02-04T06:20:37;98406.53;;;2.57;100.00
51239;BME280;38154;47.548;18.828;2023-02-04T06:23:03;98409.09;;;2.57;100.00
51239;BME280;38154;47.548;18.828;2023-02-04T06:25:28;98412.41;;;2.53;100.00
51239;BME280;38154;47.548;18.828;2023-02-04T06:27:54;98416.72;;;2.54;100.00
51239;BME280;38154;47.548;18.828;2023-02-04T06:30:20;98413.34;;;2.55;100.00
51239;BME280;38154;47.548;18.828;2023-02-04T06:32:46;98420.06;;;2.51;100.00
51239;BME280;38154;47.548;18.828;2023-02-04T06:35:12;98415.50;;;2.41;100.00
51239;BME280;38154;47.548;18.828;2023-02-04T06:37:39;98412.84;;;2.36;100.00
51239;BME280;38154;47.548;18.828;2023-02-04T06:40:06;98413.69;;;2.37;100.00
51239;BME280;38154;47.548;18.828;2023-02-04T06:42:33;98393.94;;;2.36;100.00
51239;BME280;38154;47.548;18.828;2023-02-04T06:44:59;98385.25;;;2.32;100.00
51239;BME280;38154;47.548;18.828;2023-02-04T06:47:25;98386.88;;;2.29;100.00
51239;BME280;38154;47.548;18.828;2023-02-04T06:49:51;98391.97;;;2.27;100.00
51239;BME280;38154;47.548;18.828;2023-02-04T06:52:17;98391.94;;;2.26;100.00
51239;BME280;38154;47.548;18.828;2023-02-04T06:54:43;98404.09;;;2.31;100.00
51239;BME280;38154;47.548;18.828;2023-02-04T06:57:09;98397.16;;;2.29;100.00
51239;BME280;38154;47.548;18.828;2023-02-04T06:59:37;98397.88;;;2.23;100.00
51239;BME280;38154;47.548;18.828;2023-02-04T07:02:04;98414.22;;;2.25;100.00
51239;BME280;38154;47.548;18.828;2023-02-04T07:04:30;98418.31;;;2.18;100.00
51239;BME280;38154;47.548;18.828;2023-02-04T07:06:56;98422.31;;;2.09;100.00
51239;BME280;38154;47.548;18.828;2023-02-04T07:09:22;98424.59;;;1.98;100.00
51239;BME280;38154;47.548;18.828;2023-02-04T07:11:48;98428.38;;;1.82;100.00
51239;BME280;38154;47.548;18.828;2023-02-04T07:14:14;98443.41;;;1.68;100.00
51239;BME280;38154;47.548;18.828;2023-02-04T07:16:40;98452.50;;;1.58;100.00
51239;BME280;38154;47.548;18.828;2023-02-04T07:19:06;98451.34;;;1.48;100.00
51239;BME280;38154;47.548;18.828;2023-02-04T07:21:32;98473.34;;;1.40;100.00
51239;BME280;38154;47.548;18.828;2023-02-04T07:23:58;98484.25;;;1.33;100.00
51239;BME280;38154;47.548;18.828;2023-02-04T07:26:23;98485.06;;;1.32;100.00
51239;BME280;38154;47.548;18.828;2023-02-04T07:28:49;98496.28;;;1.34;100.00
51239;BME280;38154;47.548;18.828;2023-02-04T07:31:15;98494.00;;;1.43;100.00
51239;BME280;38154;47.548;18.828;2023-02-04T07:33:41;98490.78;;;1.76;100.00
51239;BME280;38154;47.548;18.828;2023-02-04T07:36:07;98498.38;;;2.29;100.00
51239;BME280;38154;47.548;18.828;2023-02-04T07:38:33;98519.84;;;2.30;100.00
51239;BME280;38154;47.548;18.828;2023-02-04T07:40:59;98517.28;;;2.30;100.00
51239;BME280;38154;47.548;18.828;2023-02-04T07:43:25;98509.94;;;2.44;100.00
51239;BME280;38154;47.548;18.828;2023-02-04T07:45:51;98521.16;;;2.46;100.00
51239;BME280;38154;47.548;18.828;2023-02-04T07:48:17;98518.44;;;2.41;100.00
51239;BME280;38154;47.548;18.828;2023-02-04T07:50:43;98537.69;;;2.54;100.00
51239;BME280;38154;47.548;18.828;2023-02-04T07:53:09;98525.94;;;2.33;100.00
51239;BME280;38154;47.548;18.828;2023-02-04T07:55:34;98563.91;;;2.13;100.00
51239;BME280;38154;47.548;18.828;2023-02-04T07:58:00;98568.44;;;1.93;100.00
51239;BME280;38154;47.548;18.828;2023-02-04T08:00:26;98583.53;;;1.84;100.00
51239;BME280;38154;47.548;18.828;2023-02-04T08:02:52;98584.97;;;1.76;100.00
51239;BME280;38154;47.548;18.828;2023-02-04T08:05:18;98601.16;;;1.72;100.00
51239;BME280;38154;47.548;18.828;2023-02-04T08:07:44;98622.47;;;1.69;100.00
51239;BME280;38154;47.548;18.828;2023-02-04T08:10:10;98626.03;;;1.73;100.00
51239;BME280;38154;47.548;18.828;2023-02-04T08:12:36;98618.03;;;1.91;100.00
51239;BME280;38154;47.548;18.828;2023-02-04T08:15:03;98627.16;;;2.07;100.00
51239;BME280;38154;47.548;18.828;2023-02-04T08:17:29;98620.66;;;2.18;100.00
51239;BME280;38154;47.548;18.828;2023-02-04T08:19:55;98616.16;;;2.12;100.00
51239;BME280;38154;47.548;18.828;2023-02-04T08:22:21;98624.16;;;1.94;100.00
51239;BME280;38154;47.548;18.828;2023-02-04T08:24:47;98629.00;;;1.85;100.00
51239;BME280;38154;47.548;18.828;2023-02-04T08:27:13;98625.41;;;1.80;100.00
51239;BME280;38154;47.548;18.828;2023-02-04T08:29:39;98619.69;;;1.89;100.00
51239;BME280;38154;47.548;18.828;2023-02-04T08:32:05;98633.16;;;2.07;100.00
51239;BME280;38154;47.548;18.828;2023-02-04T08:34:31;98644.09;;;2.27;100.00
51239;BME280;38154;47.548;18.828;2023-02-04T08:36:57;98607.44;;;2.34;98.32
51239;BME280;38154;47.548;18.828;2023-02-04T08:39:22;98638.03;;;2.25;98.09
51239;BME280;38154;47.548;18.828;2023-02-04T08:41:48;98642.75;;;2.11;98.97
51239;BME280;38154;47.548;18.828;2023-02-04T08:44:16;98643.44;;;2.07;100.00
51239;BME280;38154;47.548;18.828;2023-02-04T08:46:42;98637.19;;;2.53;99.87
51239;BME280;38154;47.548;18.828;2023-02-04T08:49:07;98651.13;;;2.60;97.34
51239;BME280;38154;47.548;18.828;2023-02-04T08:51:33;98649.69;;;2.70;94.60
51239;BME280;38154;47.548;18.828;2023-02-04T08:53:59;98638.72;;;2.47;95.84
51239;BME280;38154;47.548;18.828;2023-02-04T08:56:25;98634.38;;;3.03;94.16
51239;BME280;38154;47.548;18.828;2023-02-04T08:58:51;98645.69;;;4.77;84.07
51239;BME280;38154;47.548;18.828;2023-02-04T09:01:20;98638.81;;;5.63;76.19
51239;BME280;38154;47.548;18.828;2023-02-04T09:03:46;98629.09;;;6.50;73.56
51239;BME280;38154;47.548;18.828;2023-02-04T09:06:12;98640.00;;;6.85;69.30
51239;BME280;38154;47.548;18.828;2023-02-04T09:08:38;98648.28;;;7.27;67.20
51239;BME280;38154;47.548;18.828;2023-02-04T09:11:03;98678.94;;;7.56;65.60
51239;BME280;38154;47.548;18.828;2023-02-04T09:13:30;98674.44;;;7.42;64.24
51239;BME280;38154;47.548;18.828;2023-02-04T09:15:57;98657.81;;;7.28;64.53
51239;BME280;38154;47.548;18.828;2023-02-04T09:18:23;98679.25;;;7.87;61.83
51239;BME280;38154;47.548;18.828;2023-02-04T09:20:50;98682.84;;;7.24;64.38
51239;BME280;38154;47.548;18.828;2023-02-04T09:23:17;98687.78;;;7.75;62.56
51239;BME280;38154;47.548;18.828;2023-02-04T09:25:44;98715.84;;;7.36;64.09
51239;BME280;38154;47.548;18.828;2023-02-04T09:28:11;98714.75;;;7.20;63.38
51239;BME280;38154;47.548;18.828;2023-02-04T09:30:38;98713.81;;;7.12;63.30
51239;BME280;38154;47.548;18.828;2023-02-04T09:33:04;98710.84;;;7.52;63.68
51239;BME280;38154;47.548;18.828;2023-02-04T09:35:31;98765.72;;;7.17;63.34
51239;BME280;38154;47.548;18.828;2023-02-04T09:37:56;98776.97;;;7.16;63.11
51239;BME280;38154;47.548;18.828;2023-02-04T09:40:25;98791.38;;;7.56;61.85
51239;BME280;38154;47.548;18.828;2023-02-04T09:42:52;98818.84;;;8.08;60.04
51239;BME280;38154;47.548;18.828;2023-02-04T09:45:23;98828.44;;;8.13;60.28
51239;BME280;38154;47.548;18.828;2023-02-04T09:47:51;98848.47;;;8.25;58.58
51239;BME280;38154;47.548;18.828;2023-02-04T09:50:21;98843.09;;;8.08;57.64
51239;BME280;38154;47.548;18.828;2023-02-04T09:52:48;98849.56;;;7.75;58.08
51239;BME280;38154;47.548;18.828;2023-02-04T09:55:16;98867.44;;;7.55;59.82
51239;BME280;38154;47.548;18.828;2023-02-04T09:57:43;98859.00;;;8.38;58.71
51239;BME280;38154;47.548;18.828;2023-02-04T10:00:19;98904.69;;;8.92;56.64
51239;BME280;38154;47.548;18.828;2023-02-04T10:02:45;98881.88;;;8.66;54.48
51239;BME280;38154;47.548;18.828;2023-02-04T10:05:17;98899.88;;;8.46;54.90
51239;BME280;38154;47.548;18.828;2023-02-04T10:07:44;98920.50;;;8.37;55.90
51239;BME280;38154;47.548;18.828;2023-02-04T10:10:20;98891.09;;;8.40;55.79
51239;BME280;38154;47.548;18.828;2023-02-04T10:12:49;98894.75;;;7.32;57.60
51239;BME280;38154;47.548;18.828;2023-02-04T10:15:17;98893.13;;;6.86;62.27
51239;BME280;38154;47.548;18.828;2023-02-04T10:17:57;98905.88;;;5.90;66.73
51239;BME280;38154;47.548;18.828;2023-02-04T10:20:26;98893.34;;;5.71;66.08
51239;BME280;38154;47.548;18.828;2023-02-04T10:22:53;98903.84;;;6.15;67.37
51239;BME280;38154;47.548;18.828;2023-02-04T10:25:23;98904.44;;;6.03;66.90
51239;BME280;38154;47.548;18.828;2023-02-04T10:27:51;98907.91;;;5.66;68.01
51239;BME280;38154;47.548;18.828;2023-02-04T10:30:20;98922.72;;;5.01;70.88
51239;BME280;38154;47.548;18.828;2023-02-04T10:32:47;98928.75;;;4.38;71.97
51239;BME280;38154;47.548;18.828;2023-02-04T10:35:15;98929.53;;;3.77;74.00
51239;BME280;38154;47.548;18.828;2023-02-04T10:37:41;98961.22;;;3.45;75.48
51239;BME280;38154;47.548;18.828;2023-02-04T10:40:31;98948.94;;;3.38;79.76
51239;BME280;38154;47.548;18.828;2023-02-04T10:42:57;98966.78;;;3.32;78.15
51239;BME280;38154;47.548;18.828;2023-02-04T10:45:28;98972.94;;;3.11;80.91
51239;BME280;38154;47.548;18.828;2023-02-04T10:47:56;98995.72;;;2.99;81.54
51239;BME280;38154;47.548;18.828;2023-02-04T10:50:27;99000.72;;;2.94;82.64
51239;BME280;38154;47.548;18.828;2023-02-04T10:52:58;98987.78;;;2.93;83.89
51239;BME280;38154;47.548;18.828;2023-02-04T10:55:44;99018.91;;;2.99;83.01
51239;BME280;38154;47.548;18.828;2023-02-04T10:58:13;99007.12;;;3.06;82.18
51239;BME280;38154;47.548;18.828;2023-02-04T11:00:40;99024.63;;;2.90;83.20
51239;BME280;38154;47.548;18.828;2023-02-04T11:03:21;99038.94;;;2.59;82.29
51239;BME280;38154;47.548;18.828;2023-02-04T11:05:47;99034.44;;;2.54;81.21
51239;BME280;38154;47.548;18.828;2023-02-04T11:08:46;99047.69;;;2.65;81.86
51239;BME280;38154;47.548;18.828;2023-02-04T11:11:15;99058.59;;;2.57;78.77
51239;BME280;38154;47.548;18.828;2023-02-04T11:16:26;99103.59;;;2.67;78.61
51239;BME280;38154;47.548;18.828;2023-02-04T11:26:46;99124.81;;;2.84;75.25
51239;BME280;38154;47.548;18.828;2023-02-04T11:39:28;99163.31;;;3.50;76.10
51239;BME280;38154;47.548;18.828;2023-02-04T11:42:00;99196.75;;;3.25;75.91
51239;BME280;38154;47.548;18.828;2023-02-04T11:44:26;99186.59;;;3.29;78.14
51239;BME280;38154;47.548;18.828;2023-02-04T11:46:54;99214.22;;;3.32;78.23
51239;BME280;38154;47.548;18.828;2023-02-04T11:49:22;99199.50;;;3.29;77.52
51239;BME280;38154;47.548;18.828;2023-02-04T11:51:49;99231.16;;;3.25;78.08
51239;BME280;38154;47.548;18.828;2023-02-04T11:54:16;99210.63;;;3.28;75.55
51239;BME280;38154;47.548;18.828;2023-02-04T11:56:46;99240.84;;;3.10;75.61
51239;BME280;38154;47.548;18.828;2023-02-04T11:59:13;99235.47;;;3.26;78.32
51239;BME280;38154;47.548;18.828;2023-02-04T12:01:40;99254.56;;;3.09;77.14
51239;BME280;38154;47.548;18.828;2023-02-04T12:04:18;99248.94;;;3.19;76.21
51239;BME280;38154;47.548;18.828;2023-02-04T12:06:59;99265.38;;;3.23;76.88
51239;BME280;38154;47.548;18.828;2023-02-04T12:09:27;99280.50;;;3.13;76.82
51239;BME280;38154;47.548;18.828;2023-02-04T12:12:01;99300.94;;;2.88;74.57
51239;BME280;38154;47.548;18.828;2023-02-04T12:14:30;99313.91;;;2.68;75.76
51239;BME280;38154;47.548;18.828;2023-02-04T12:16:57;99285.63;;;2.70;76.40
51239;BME280;38154;47.548;18.828;2023-02-04T12:19:23;99278.47;;;2.84;78.40
51239;BME280;38154;47.548;18.828;2023-02-04T12:21:49;99305.81;;;2.80;79.10
51239;BME280;38154;47.548;18.828;2023-02-04T12:24:15;99290.84;;;2.71;75.41
51239;BME280;38154;47.548;18.828;2023-02-04T12:26:40;99305.41;;;2.92;73.05
51239;BME280;38154;47.548;18.828;2023-02-04T12:29:07;99291.41;;;2.85;73.61
51239;BME280;38154;47.548;18.828;2023-02-04T12:31:34;99315.03;;;2.75;74.40
51239;BME280;38154;47.548;18.828;2023-02-04T12:34:00;99309.81;;;2.73;72.94
51239;BME280;38154;47.548;18.828;2023-02-04T12:36:26;99333.22;;;2.79;74.21
51239;BME280;38154;47.548;18.828;2023-02-04T12:38:55;99343.09;;;2.69;73.54
51239;BME280;38154;47.548;18.828;2023-02-04T12:41:23;99330.53;;;2.55;73.27
51239;BME280;38154;47.548;18.828;2023-02-04T12:43:49;99348.13;;;2.46;71.19
51239;BME280;38154;47.548;18.828;2023-02-04T12:46:16;99345.13;;;2.35;72.86
51239;BME280;38154;47.548;18.828;2023-02-04T12:48:42;99341.75;;;2.36;71.60
51239;BME280;38154;47.548;18.828;2023-02-04T12:51:08;99350.47;;;2.20;70.09
51239;BME280;38154;47.548;18.828;2023-02-04T12:53:34;99349.19;;;2.11;69.95
51239;BME280;38154;47.548;18.828;2023-02-04T12:56:00;99348.94;;;2.04;73.20
51239;BME280;38154;47.548;18.828;2023-02-04T12:58:26;99357.53;;;2.05;78.51
51239;BME280;38154;47.548;18.828;2023-02-04T13:00:52;99385.38;;;1.96;78.74
51239;BME280;38154;47.548;18.828;2023-02-04T13:03:18;99371.44;;;1.91;78.44
51239;BME280;38154;47.548;18.828;2023-02-04T13:05:44;99374.84;;;1.90;75.17
51239;BME280;38154;47.548;18.828;2023-02-04T13:08:10;99383.00;;;1.81;78.46
51239;BME280;38154;47.548;18.828;2023-02-04T13:10:36;99389.72;;;1.97;77.27
51239;BME280;38154;47.548;18.828;2023-02-04T13:13:02;99386.63;;;1.84;74.63